createdAt,value
2019-03-17T00:00:31.080Z,0
2019-03-17T00:01:13.390Z,0
2019-03-17T00:01:57.556Z,0
2019-03-17T00:02:35.460Z,0
2019-03-17T00:03:15.904Z,0
2019-03-17T00:03:58.515Z,0
2019-03-17T00:04:38.929Z,0
2019-03-17T00:05:19.527Z,0
2019-03-17T00:05:59.828Z,0
2019-03-17T00:06:41.923Z,0
2019-03-17T00:07:24.244Z,0
2019-03-17T00:08:05.628Z,0
2019-03-17T00:08:45.824Z,0
2019-03-17T00:09:29.039Z,0
2019-03-17T00:10:12.990Z,0
2019-03-17T00:10:55.000Z,0
2019-03-17T00:11:37.106Z,0
2019-03-17T00:12:17.789Z,0
2019-03-17T00:13:02.835Z,0
2019-03-17T00:13:43.468Z,0
2019-03-17T00:14:24.900Z,0
2019-03-17T00:15:07.227Z,0
2019-03-17T00:15:48.068Z,0
2019-03-17T00:16:30.481Z,0
2019-03-17T00:17:11.257Z,0
2019-03-17T00:17:51.609Z,0
2019-03-17T00:18:34.076Z,0
2019-03-17T00:19:15.812Z,0
2019-03-17T00:19:58.302Z,0
2019-03-17T00:20:40.497Z,0
2019-03-17T00:21:20.807Z,0
2019-03-17T00:22:01.297Z,0
2019-03-17T00:22:42.107Z,0
2019-03-17T00:23:22.458Z,0
2019-03-17T00:24:05.759Z,0
2019-03-17T00:24:48.710Z,0
2019-03-17T00:25:29.107Z,0
2019-03-17T00:26:10.474Z,0
2019-03-17T00:26:50.834Z,0
2019-03-17T00:27:31.418Z,0
2019-03-17T00:28:11.797Z,0
2019-03-17T00:28:55.799Z,0
2019-03-17T00:29:36.711Z,0
2019-03-17T00:30:18.038Z,0
2019-03-17T00:30:59.377Z,0
2019-03-17T00:31:40.651Z,0
2019-03-17T00:32:23.245Z,0
2019-03-17T00:33:03.553Z,0
2019-03-17T00:33:45.809Z,0
2019-03-17T00:34:29.806Z,0
2019-03-17T00:35:11.929Z,0
2019-03-17T00:35:52.704Z,0
2019-03-17T00:36:37.711Z,0
2019-03-17T00:37:21.041Z,0
2019-03-17T00:38:02.384Z,0
2019-03-17T00:38:43.629Z,0
2019-03-17T00:39:24.938Z,0
2019-03-17T00:40:06.489Z,0
2019-03-17T00:40:47.324Z,0
2019-03-17T00:41:32.210Z,0
2019-03-17T00:42:21.630Z,0
2019-03-17T00:43:01.814Z,0
2019-03-17T00:43:43.802Z,0
2019-03-17T00:44:26.403Z,0
2019-03-17T00:45:11.314Z,0
2019-03-17T00:45:49.976Z,0
2019-03-17T00:46:33.949Z,0
2019-03-17T00:47:15.427Z,0
2019-03-17T00:47:56.324Z,0
2019-03-17T00:48:37.375Z,0
2019-03-17T00:49:20.323Z,0
2019-03-17T00:50:03.530Z,0
2019-03-17T00:50:45.735Z,0
2019-03-17T00:51:29.731Z,0
2019-03-17T00:52:10.253Z,0
2019-03-17T00:52:50.688Z,0
2019-03-17T00:53:30.986Z,0
2019-03-17T00:54:11.933Z,0
2019-03-17T00:54:52.506Z,0
2019-03-17T00:55:38.990Z,0
2019-03-17T00:56:25.235Z,0
2019-03-17T00:57:05.953Z,0
2019-03-17T00:57:50.882Z,0
2019-03-17T00:58:34.920Z,0
2019-03-17T00:59:15.992Z,0
2019-03-17T00:59:56.845Z,0
2019-03-17T01:00:40.902Z,0
2019-03-17T01:01:24.217Z,0
2019-03-17T01:02:04.769Z,0
2019-03-17T01:02:48.002Z,0
2019-03-17T01:03:30.186Z,0
2019-03-17T01:04:13.345Z,0
2019-03-17T01:04:57.416Z,0
2019-03-17T01:05:38.081Z,0
2019-03-17T01:06:18.535Z,0
2019-03-17T01:07:01.209Z,0
2019-03-17T01:07:45.659Z,0
2019-03-17T01:08:26.566Z,0
2019-03-17T01:09:09.445Z,0
2019-03-17T01:09:49.862Z,0
2019-03-17T01:10:31.377Z,0
2019-03-17T01:11:13.564Z,0
2019-03-17T01:11:56.363Z,0
2019-03-17T01:12:36.808Z,0
2019-03-17T01:13:17.313Z,0
2019-03-17T01:14:01.448Z,0
2019-03-17T01:14:41.922Z,0
2019-03-17T01:15:23.949Z,0
2019-03-17T01:16:04.347Z,0
2019-03-17T01:16:45.714Z,0
2019-03-17T01:17:32.197Z,0
2019-03-17T01:18:18.749Z,0
2019-03-17T01:19:00.725Z,0
2019-03-17T01:21:53.948Z,0
2019-03-17T01:22:40.767Z,0
2019-03-17T01:23:21.132Z,0
2019-03-17T01:24:03.061Z,0
2019-03-17T01:24:45.556Z,0
2019-03-17T01:25:28.160Z,0
2019-03-17T01:26:12.086Z,0
2019-03-17T01:26:54.367Z,0
2019-03-17T01:27:36.657Z,0
2019-03-17T01:28:18.891Z,0
2019-03-17T01:29:01.301Z,0
2019-03-17T01:29:46.382Z,0
2019-03-17T01:30:28.295Z,0
2019-03-17T01:31:10.352Z,0
2019-03-17T01:31:54.757Z,0
2019-03-17T01:32:38.817Z,0
2019-03-17T01:33:22.810Z,0
2019-03-17T01:34:03.287Z,0
2019-03-17T01:34:44.918Z,0
2019-03-17T01:35:26.729Z,0
2019-03-17T01:36:08.532Z,0
2019-03-17T01:36:52.958Z,0
2019-03-17T01:37:36.424Z,0
2019-03-17T01:38:18.482Z,0
2019-03-17T01:38:59.677Z,0
2019-03-17T01:39:40.055Z,0
2019-03-17T01:40:29.155Z,0
2019-03-17T01:41:11.045Z,0
2019-03-17T01:41:52.381Z,0
2019-03-17T01:42:32.920Z,0
2019-03-17T01:43:13.901Z,0
2019-03-17T01:43:55.605Z,0
2019-03-17T01:44:37.802Z,0
2019-03-17T01:45:21.125Z,0
2019-03-17T01:46:02.171Z,0
2019-03-17T01:57:40.844Z,0
2019-03-17T02:00:41.427Z,0
2019-03-17T02:20:09.620Z,0
2019-03-17T02:20:48.197Z,0
2019-03-17T02:21:30.518Z,0
2019-03-17T02:22:10.890Z,0
2019-03-17T02:22:51.264Z,0
2019-03-17T02:23:31.889Z,0
2019-03-17T02:24:12.231Z,0
2019-03-17T02:24:54.207Z,0
2019-03-17T02:25:38.142Z,0
2019-03-17T02:26:19.539Z,0
2019-03-17T02:27:00.933Z,0
2019-03-17T02:27:42.978Z,0
2019-03-17T02:28:28.030Z,0
2019-03-17T02:29:12.045Z,0
2019-03-17T02:29:56.226Z,0
2019-03-17T02:30:38.564Z,0
2019-03-17T02:31:20.777Z,0
2019-03-17T02:32:03.907Z,0
2019-03-17T02:32:47.278Z,0
2019-03-17T02:33:28.010Z,0
2019-03-17T02:34:11.741Z,0
2019-03-17T02:34:54.529Z,0
2019-03-17T02:35:39.190Z,0
2019-03-17T02:36:18.553Z,0
2019-03-17T02:37:00.003Z,0
2019-03-17T02:37:43.423Z,0
2019-03-17T02:38:24.110Z,0
2019-03-17T02:39:05.057Z,0
2019-03-17T02:39:47.929Z,0
2019-03-17T02:40:28.533Z,0
2019-03-17T02:41:16.619Z,0
2019-03-17T02:41:59.238Z,0
2019-03-17T02:42:40.686Z,0
2019-03-17T02:43:21.001Z,0
2019-03-17T02:44:02.272Z,0
2019-03-17T02:44:45.338Z,0
2019-03-17T02:45:28.036Z,0
2019-03-17T02:46:12.366Z,0
2019-03-17T02:46:54.275Z,0
2019-03-17T02:47:36.584Z,0
2019-03-17T02:48:17.058Z,0
2019-03-17T02:48:58.539Z,0
2019-03-17T02:49:39.221Z,0
2019-03-17T02:50:21.419Z,0
2019-03-17T02:51:03.524Z,0
2019-03-17T02:51:45.825Z,0
2019-03-17T02:52:28.766Z,0
2019-03-17T02:53:10.477Z,0
2019-03-17T02:53:55.120Z,0
2019-03-17T02:54:37.437Z,0
2019-03-17T02:55:22.209Z,0
2019-03-17T02:56:03.522Z,0
2019-03-17T02:56:45.591Z,0
2019-03-17T02:57:26.860Z,0
2019-03-17T02:58:07.300Z,0
2019-03-17T02:58:48.681Z,0
2019-03-17T02:59:31.291Z,0
2019-03-17T03:00:11.927Z,0
2019-03-17T03:00:54.167Z,0
2019-03-17T03:01:36.110Z,0
2019-03-17T03:02:25.134Z,0
2019-03-17T03:03:07.204Z,0
2019-03-17T03:03:48.097Z,0
2019-03-17T03:04:30.871Z,0
2019-03-17T03:05:11.406Z,0
2019-03-17T03:05:55.074Z,0
2019-03-17T03:06:32.944Z,0
2019-03-17T03:07:15.158Z,0
2019-03-17T03:07:56.136Z,0
2019-03-17T03:08:38.257Z,0
2019-03-17T03:09:20.598Z,0
2019-03-17T03:10:02.612Z,0
2019-03-17T03:10:44.457Z,0
2019-03-17T03:11:28.110Z,0
2019-03-17T03:12:12.025Z,0
2019-03-17T03:12:52.944Z,0
2019-03-17T03:13:33.542Z,0
2019-03-17T03:14:16.654Z,0
2019-03-17T03:14:57.010Z,0
2019-03-17T03:15:40.529Z,0
2019-03-17T03:16:22.712Z,0
2019-03-17T03:17:05.129Z,0
2019-03-17T03:17:46.606Z,0
2019-03-17T03:18:29.482Z,0
2019-03-17T03:19:11.100Z,0
2019-03-17T03:19:53.453Z,0
2019-03-17T03:20:34.599Z,0
2019-03-17T03:21:15.883Z,0
2019-03-17T03:21:57.181Z,0
2019-03-17T03:22:37.851Z,0
2019-03-17T03:23:19.992Z,0
2019-03-17T03:24:00.459Z,0
2019-03-17T03:24:42.643Z,0
2019-03-17T03:25:27.787Z,0
2019-03-17T03:26:11.986Z,0
2019-03-17T03:26:52.621Z,0
2019-03-17T03:27:35.981Z,0
2019-03-17T03:28:17.339Z,0
2019-03-17T03:29:01.317Z,0
2019-03-17T03:29:45.054Z,0
2019-03-17T03:30:28.035Z,0
2019-03-17T03:31:08.364Z,0
2019-03-17T03:31:52.082Z,0
2019-03-17T03:32:32.360Z,0
2019-03-17T03:33:14.718Z,0
2019-03-17T03:33:58.503Z,0
2019-03-17T03:34:38.924Z,0
2019-03-17T03:35:20.473Z,0
2019-03-17T03:36:10.401Z,0
2019-03-17T03:36:46.115Z,0
2019-03-17T03:37:29.354Z,0
2019-03-17T03:38:11.270Z,0
2019-03-17T03:38:52.911Z,0
2019-03-17T03:39:33.618Z,0
2019-03-17T03:40:14.001Z,0
2019-03-17T03:40:56.009Z,0
2019-03-17T03:41:37.132Z,0
2019-03-17T03:42:18.478Z,0
2019-03-17T03:43:04.548Z,0
2019-03-17T03:43:49.661Z,0
2019-03-17T03:44:31.886Z,0
2019-03-17T03:45:14.328Z,0
2019-03-17T03:45:55.352Z,0
2019-03-17T03:46:35.708Z,0
2019-03-17T03:47:16.253Z,0
2019-03-17T03:47:58.117Z,0
2019-03-17T03:48:39.370Z,0
2019-03-17T03:49:22.207Z,0
2019-03-17T03:50:04.276Z,0
2019-03-17T03:50:45.688Z,0
2019-03-17T03:51:26.422Z,0
2019-03-17T03:52:07.696Z,0
2019-03-17T03:52:49.935Z,0
2019-03-17T03:53:30.382Z,0
2019-03-17T03:54:12.316Z,0
2019-03-17T03:54:53.725Z,0
2019-03-17T03:55:36.002Z,0
2019-03-17T03:56:20.253Z,0
2019-03-17T03:57:00.927Z,0
2019-03-17T03:57:43.215Z,0
2019-03-17T03:58:25.326Z,0
2019-03-17T03:59:07.927Z,0
2019-03-17T04:00:00.443Z,0
2019-03-17T04:00:42.146Z,0
2019-03-17T04:01:25.458Z,0
2019-03-17T04:02:09.331Z,0
2019-03-17T04:02:50.736Z,0
2019-03-17T04:03:31.089Z,0
2019-03-17T04:04:12.522Z,0
2019-03-17T04:04:55.085Z,0
2019-03-17T04:05:39.317Z,0
2019-03-17T04:10:48.054Z,0
2019-03-17T04:15:38.365Z,0
2019-03-17T04:16:21.482Z,0
2019-03-17T04:17:03.424Z,0
2019-03-17T04:17:47.535Z,0
2019-03-17T04:18:34.805Z,0
2019-03-17T04:19:17.535Z,0
2019-03-17T04:20:00.866Z,0
2019-03-17T04:20:43.356Z,0
2019-03-17T04:21:23.489Z,0
2019-03-17T04:22:06.417Z,0
2019-03-17T04:22:49.382Z,0
2019-03-17T04:23:33.546Z,0
2019-03-17T04:24:15.670Z,0
2019-03-17T04:24:58.478Z,0
2019-03-17T04:25:44.139Z,0
2019-03-17T04:26:26.504Z,0
2019-03-17T04:27:07.355Z,0
2019-03-17T04:27:47.853Z,0
2019-03-17T05:14:42.868Z,0
2019-03-17T05:17:11.636Z,0
2019-03-17T05:33:08.287Z,0
2019-03-17T05:42:19.066Z,4
2019-03-17T05:44:22.951Z,4
2019-03-17T05:48:07.510Z,12
2019-03-17T05:53:21.964Z,20
2019-03-17T05:54:04.625Z,20
2019-03-17T05:54:47.109Z,20
2019-03-17T05:55:27.607Z,20
2019-03-17T05:56:09.961Z,28
2019-03-17T05:56:53.735Z,28
2019-03-17T05:57:36.216Z,28
2019-03-17T05:58:16.920Z,28
2019-03-17T05:58:57.290Z,32
2019-03-17T05:59:38.275Z,28
2019-03-17T06:00:22.306Z,28
2019-03-17T06:01:03.366Z,28
2019-03-17T06:01:46.431Z,28
2019-03-17T06:02:26.954Z,28
2019-03-17T06:03:09.108Z,28
2019-03-17T06:03:49.511Z,28
2019-03-17T06:04:34.428Z,28
2019-03-17T06:05:17.319Z,28
2019-03-17T06:05:58.305Z,32
2019-03-17T06:06:40.327Z,32
2019-03-17T06:13:44.691Z,32
2019-03-17T06:14:25.969Z,40
2019-03-17T06:15:12.194Z,36
2019-03-17T06:15:59.235Z,32
2019-03-17T06:16:41.490Z,36
2019-03-17T06:17:23.631Z,36
2019-03-17T06:18:07.457Z,36
2019-03-17T06:18:52.867Z,40
2019-03-17T06:19:33.415Z,36
2019-03-17T06:20:15.166Z,36
2019-03-17T06:20:56.395Z,40
2019-03-17T06:21:39.159Z,40
2019-03-17T06:43:59.034Z,92
2019-03-17T06:44:41.877Z,96
2019-03-17T06:45:24.141Z,96
2019-03-17T06:46:05.438Z,92
2019-03-17T06:46:46.379Z,96
2019-03-17T06:47:29.898Z,100
2019-03-17T06:48:12.322Z,100
2019-03-17T06:48:54.227Z,108
2019-03-17T06:49:38.142Z,112
2019-03-17T06:50:21.544Z,108
2019-03-17T06:51:03.448Z,96
2019-03-17T06:51:43.851Z,112
2019-03-17T06:52:28.092Z,128
2019-03-17T06:53:18.309Z,136
2019-03-17T06:54:01.131Z,140
2019-03-17T06:54:43.341Z,140
2019-03-17T06:55:23.703Z,156
2019-03-17T06:56:04.110Z,168
2019-03-17T06:56:48.124Z,172
2019-03-17T06:57:28.953Z,156
2019-03-17T06:58:09.485Z,156
2019-03-17T06:58:49.931Z,172
2019-03-17T06:59:32.787Z,176
2019-03-17T07:00:13.483Z,172
2019-03-17T07:00:53.812Z,164
2019-03-17T07:01:39.994Z,152
2019-03-17T07:02:20.682Z,148
2019-03-17T07:03:01.153Z,144
2019-03-17T07:03:43.132Z,136
2019-03-17T07:04:23.593Z,132
2019-03-17T07:05:04.035Z,140
2019-03-17T07:05:46.100Z,136
2019-03-17T07:06:26.818Z,136
2019-03-17T07:07:09.370Z,136
2019-03-17T07:07:53.339Z,124
2019-03-17T07:08:33.710Z,116
2019-03-17T07:09:15.111Z,112
2019-03-17T07:09:57.458Z,104
2019-03-17T07:10:39.804Z,104
2019-03-17T07:11:20.283Z,108
2019-03-17T07:12:02.402Z,112
2019-03-17T07:12:43.415Z,120
2019-03-17T07:13:23.973Z,132
2019-03-17T07:14:06.111Z,144
2019-03-17T07:14:47.579Z,164
2019-03-17T07:15:29.002Z,176
2019-03-17T07:16:09.371Z,180
2019-03-17T07:16:52.656Z,196
2019-03-17T07:29:41.476Z,400
2019-03-17T07:30:24.671Z,388
2019-03-17T07:31:08.359Z,352
2019-03-17T07:31:48.806Z,312
2019-03-17T07:32:29.368Z,248
2019-03-17T07:33:15.971Z,240
2019-03-17T07:33:59.029Z,204
2019-03-17T07:34:41.149Z,148
2019-03-17T07:35:23.429Z,120
2019-03-17T07:36:06.355Z,112
2019-03-17T07:36:48.579Z,136
2019-03-17T07:37:32.724Z,104
2019-03-17T07:38:14.733Z,128
2019-03-17T07:38:56.343Z,140
2019-03-17T07:39:38.263Z,144
2019-03-17T07:40:18.767Z,168
2019-03-17T07:40:59.273Z,184
2019-03-17T07:41:39.587Z,224
2019-03-17T07:42:19.999Z,264
2019-03-17T07:43:00.424Z,280
2019-03-17T07:43:41.865Z,324
2019-03-17T07:44:23.914Z,320
2019-03-17T07:45:05.419Z,392
2019-03-17T07:45:47.389Z,460
2019-03-17T07:46:28.709Z,508
2019-03-17T07:47:09.328Z,512
2019-03-17T07:47:49.478Z,528
2019-03-17T07:48:29.828Z,512
2019-03-17T07:49:13.677Z,488
2019-03-17T07:49:57.874Z,464
2019-03-17T07:50:38.369Z,440
2019-03-17T07:51:18.910Z,424
2019-03-17T07:52:02.758Z,412
2019-03-17T07:52:43.155Z,396
2019-03-17T07:53:24.467Z,392
2019-03-17T07:54:06.634Z,392
2019-03-17T07:54:47.261Z,396
2019-03-17T07:55:27.771Z,404
2019-03-17T07:56:08.130Z,408
2019-03-17T07:56:49.541Z,416
2019-03-17T07:57:29.851Z,420
2019-03-17T07:58:10.441Z,424
2019-03-17T07:58:50.957Z,436
2019-03-17T07:59:32.230Z,444
2019-03-17T08:00:12.648Z,456
2019-03-17T08:00:55.019Z,472
2019-03-17T08:01:38.192Z,480
2019-03-17T08:02:18.472Z,492
2019-03-17T08:02:59.006Z,492
2019-03-17T08:03:39.227Z,488
2019-03-17T08:04:19.642Z,488
2019-03-17T08:05:00.177Z,496
2019-03-17T08:05:40.568Z,496
2019-03-17T08:06:21.068Z,496
2019-03-17T08:07:01.472Z,496
2019-03-17T08:07:41.815Z,492
2019-03-17T08:08:22.330Z,484
2019-03-17T08:09:03.599Z,480
2019-03-17T08:09:44.456Z,468
2019-03-17T08:10:24.958Z,464
2019-03-17T08:11:05.295Z,464
2019-03-17T08:11:45.631Z,468
2019-03-17T08:12:26.957Z,468
2019-03-17T08:13:08.349Z,460
2019-03-17T08:13:49.808Z,452
2019-03-17T08:14:30.464Z,444
2019-03-17T08:15:14.534Z,444
2019-03-17T08:15:56.098Z,452
2019-03-17T08:16:40.280Z,464
2019-03-17T08:17:22.589Z,476
2019-03-17T08:18:04.891Z,488
2019-03-17T08:18:55.874Z,504
2019-03-17T08:19:36.244Z,508
2019-03-17T08:20:18.244Z,512
2019-03-17T08:20:58.605Z,520
2019-03-17T08:21:43.154Z,520
2019-03-17T08:22:21.528Z,520
2019-03-17T08:23:01.929Z,516
2019-03-17T08:23:46.233Z,512
2019-03-17T08:24:26.736Z,524
2019-03-17T08:25:08.760Z,540
2019-03-17T08:25:50.090Z,556
2019-03-17T08:26:32.039Z,580
2019-03-17T08:27:13.651Z,616
2019-03-17T08:27:55.591Z,640
2019-03-17T08:28:35.978Z,664
2019-03-17T08:29:16.310Z,684
2019-03-17T08:29:56.763Z,688
2019-03-17T08:30:37.374Z,676
2019-03-17T08:31:19.544Z,652
2019-03-17T08:32:01.296Z,632
2019-03-17T08:32:43.217Z,616
2019-03-17T08:33:24.339Z,620
2019-03-17T08:34:04.887Z,632
2019-03-17T08:34:49.660Z,660
2019-03-17T08:35:31.812Z,688
2019-03-17T08:36:12.221Z,708
2019-03-17T08:36:52.663Z,724
2019-03-17T08:37:33.023Z,752
2019-03-17T08:38:21.565Z,792
2019-03-17T08:38:56.828Z,820
2019-03-17T08:39:39.083Z,848
2019-03-17T08:40:19.536Z,872
2019-03-17T08:41:01.609Z,884
2019-03-17T08:41:43.562Z,924
2019-03-17T08:42:25.306Z,1008
2019-03-17T08:43:06.774Z,1076
2019-03-17T08:43:53.957Z,1112
2019-03-17T08:44:32.101Z,1132
2019-03-17T08:45:17.423Z,1204
2019-03-17T08:45:59.608Z,1244
2019-03-17T08:46:40.300Z,1252
2019-03-17T08:47:31.644Z,1244
2019-03-17T08:48:13.662Z,1240
2019-03-17T08:48:55.882Z,1312
2019-03-17T08:49:38.300Z,1316
2019-03-17T08:50:21.115Z,1228
2019-03-17T08:51:02.516Z,1180
2019-03-17T08:51:42.996Z,1152
2019-03-17T08:52:24.771Z,1112
2019-03-17T08:53:16.708Z,1068
2019-03-17T08:53:57.248Z,1024
2019-03-17T08:54:37.904Z,968
2019-03-17T08:55:19.861Z,940
2019-03-17T08:56:00.600Z,964
2019-03-17T08:56:40.956Z,1004
2019-03-17T08:57:23.548Z,1028
2019-03-17T08:58:04.170Z,1020
2019-03-17T08:58:44.449Z,1056
2019-03-17T08:59:24.891Z,1068
2019-03-17T09:00:09.619Z,1056
2019-03-17T09:00:51.281Z,1044
2019-03-17T09:01:32.535Z,1052
2019-03-17T09:02:18.134Z,1056
2019-03-17T09:02:59.700Z,1056
2019-03-17T09:03:42.834Z,1016
2019-03-17T09:04:23.253Z,1008
2019-03-17T09:05:06.738Z,1016
2019-03-17T09:05:53.070Z,1008
2019-03-17T09:06:36.334Z,984
2019-03-17T09:07:16.817Z,968
2019-03-17T09:07:58.922Z,976
2019-03-17T09:08:41.304Z,984
2019-03-17T09:09:22.181Z,976
2019-03-17T09:10:03.394Z,964
2019-03-17T09:10:43.717Z,956
2019-03-17T09:11:24.821Z,936
2019-03-17T09:12:05.214Z,924
2019-03-17T09:12:45.653Z,892
2019-03-17T09:13:26.815Z,872
2019-03-17T09:14:07.310Z,864
2019-03-17T09:14:51.203Z,848
2019-03-17T09:15:31.624Z,832
2019-03-17T09:16:12.040Z,836
2019-03-17T09:16:52.537Z,840
2019-03-17T09:17:32.779Z,844
2019-03-17T09:18:13.172Z,860
2019-03-17T09:18:53.538Z,880
2019-03-17T09:19:35.757Z,836
2019-03-17T09:20:17.369Z,840
2019-03-17T09:20:58.187Z,844
2019-03-17T09:21:39.382Z,856
2019-03-17T09:22:19.716Z,888
2019-03-17T09:23:01.153Z,944
2019-03-17T09:23:42.759Z,1104
2019-03-17T09:24:23.278Z,1256
2019-03-17T09:25:03.353Z,1296
2019-03-17T09:25:47.261Z,1344
2019-03-17T09:26:29.618Z,1412
2019-03-17T09:27:11.880Z,1432
2019-03-17T09:27:52.219Z,1532
2019-03-17T09:28:32.586Z,1564
2019-03-17T09:29:13.467Z,1560
2019-03-17T09:29:56.416Z,1580
2019-03-17T09:30:36.950Z,1552
2019-03-17T09:31:17.289Z,1504
2019-03-17T09:31:59.640Z,1484
2019-03-17T09:32:41.872Z,1512
2019-03-17T09:33:24.303Z,1516
2019-03-17T09:34:05.586Z,1548
2019-03-17T09:34:45.946Z,1640
2019-03-17T09:35:29.300Z,1716
2019-03-17T09:36:19.713Z,1776
2019-03-17T09:37:03.590Z,1712
2019-03-17T09:37:44.024Z,1808
2019-03-17T09:38:24.566Z,1904
2019-03-17T09:39:14.293Z,1896
2019-03-17T09:39:54.365Z,2012
2019-03-17T09:40:34.755Z,2136
2019-03-17T09:41:17.177Z,2224
2019-03-17T09:42:01.076Z,2228
2019-03-17T09:42:43.346Z,2116
2019-03-17T09:43:26.091Z,2024
2019-03-17T09:44:08.367Z,2032
2019-03-17T09:44:48.790Z,2100
2019-03-17T09:45:29.250Z,2184
2019-03-17T09:46:11.589Z,2316
2019-03-17T09:46:56.796Z,2492
2019-03-17T09:47:37.413Z,2696
2019-03-17T09:48:21.233Z,2808
2019-03-17T09:49:02.116Z,2784
2019-03-17T09:49:44.503Z,2720
2019-03-17T09:50:24.984Z,2500
2019-03-17T09:51:07.580Z,2512
2019-03-17T10:02:35.601Z,1764
2019-03-17T10:03:21.905Z,1720
2019-03-17T10:04:02.192Z,1700
2019-03-17T10:06:18.097Z,1584
2019-03-17T10:07:09.384Z,1488
2019-03-17T10:11:05.352Z,1752
2019-03-17T10:11:45.697Z,1648
2019-03-17T10:12:27.007Z,1668
2019-03-17T10:13:07.429Z,1688
2019-03-17T10:13:50.375Z,1612
2019-03-17T10:14:33.279Z,1508
2019-03-17T10:15:30.818Z,1392
2019-03-17T10:16:11.349Z,1392
2019-03-17T10:16:52.104Z,1384
2019-03-17T10:17:33.480Z,1360
2019-03-17T10:18:14.781Z,1364
2019-03-17T10:18:56.874Z,1180
2019-03-17T10:19:39.210Z,1180
2019-03-17T10:20:20.495Z,1152
2019-03-17T10:21:01.937Z,1144
2019-03-17T10:21:42.239Z,928
2019-03-17T10:22:22.825Z,904
2019-03-17T10:23:03.302Z,992
2019-03-17T10:23:45.676Z,1088
2019-03-17T10:24:27.939Z,1148
2019-03-17T10:25:10.118Z,1172
2019-03-17T10:25:50.493Z,1100
2019-03-17T10:26:31.124Z,1068
2019-03-17T10:27:13.099Z,936
2019-03-17T10:28:04.179Z,764
2019-03-17T10:28:44.641Z,840
2019-03-17T10:29:35.639Z,916
2019-03-17T11:07:20.131Z,1816
2019-03-17T11:08:00.515Z,1956
2019-03-17T11:08:40.875Z,1720
2019-03-17T11:09:25.345Z,1596
2019-03-17T11:10:03.242Z,1608
2019-03-17T11:10:45.445Z,1336
2019-03-17T11:11:25.794Z,1472
2019-03-17T11:12:06.262Z,1440
2019-03-17T11:12:48.359Z,1508
2019-03-17T11:13:29.585Z,1664
2019-03-17T11:14:11.011Z,1636
2019-03-17T11:14:51.462Z,1440
2019-03-17T11:15:32.157Z,1328
2019-03-17T11:16:12.566Z,1232
2019-03-17T11:16:52.953Z,1200
2019-03-17T11:17:33.366Z,1156
2019-03-17T11:18:13.795Z,1076
2019-03-17T11:18:55.204Z,1008
2019-03-17T11:19:35.626Z,948
2019-03-17T11:20:15.881Z,920
2019-03-17T11:20:56.403Z,1512
2019-03-17T11:21:36.761Z,1480
2019-03-17T11:22:19.927Z,1484
2019-03-17T11:23:00.336Z,1480
2019-03-17T11:23:40.656Z,1492
2019-03-17T11:24:21.066Z,1468
2019-03-17T11:25:05.330Z,1480
2019-03-17T11:25:45.996Z,1480
2019-03-17T11:26:27.159Z,1484
2019-03-17T11:27:07.666Z,1480
2019-03-17T11:27:49.263Z,1460
2019-03-17T11:28:33.392Z,1460
2019-03-17T11:29:14.646Z,1460
2019-03-17T11:29:56.813Z,1464
2019-03-17T11:30:37.259Z,1472
2019-03-17T11:31:18.538Z,1472
2019-03-17T11:31:59.010Z,1500
2019-03-17T11:32:43.193Z,1472
2019-03-17T11:33:23.625Z,1500
2019-03-17T11:34:06.148Z,1528
2019-03-17T11:34:46.594Z,992
2019-03-17T11:35:28.788Z,1536
2019-03-17T11:36:09.297Z,1620
2019-03-17T11:36:49.698Z,1508
2019-03-17T11:37:31.934Z,1824
2019-03-17T11:38:14.064Z,1276
2019-03-17T11:38:56.394Z,1824
2019-03-17T11:39:38.149Z,1640
2019-03-17T11:40:17.328Z,1804
2019-03-17T11:40:58.259Z,1548
2019-03-17T11:41:38.560Z,1376
2019-03-17T11:42:19.542Z,1308
2019-03-17T11:42:59.918Z,1316
2019-03-17T11:43:42.158Z,1288
2019-03-17T11:44:25.522Z,1668
2019-03-17T11:45:05.833Z,1680
2019-03-17T11:45:46.248Z,1652
2019-03-17T11:46:26.687Z,1108
2019-03-17T11:47:08.689Z,1028
2019-03-17T11:47:49.061Z,1016
2019-03-17T11:48:33.129Z,1328
2019-03-17T11:49:18.263Z,1564
2019-03-17T11:49:58.703Z,1028
2019-03-17T11:50:39.164Z,1016
2019-03-17T11:51:19.598Z,1084
2019-03-17T11:52:01.826Z,1080
2019-03-17T11:52:42.401Z,1100
2019-03-17T11:53:24.353Z,1584
2019-03-17T11:54:05.856Z,1592
2019-03-17T11:54:48.759Z,1648
2019-03-17T11:55:31.777Z,1700
2019-03-17T11:56:10.618Z,1788
2019-03-17T11:56:52.005Z,1932
2019-03-17T11:57:32.403Z,1876
2019-03-17T11:58:13.045Z,1900
2019-03-17T11:58:54.235Z,1868
2019-03-17T11:59:34.398Z,1808
2019-03-17T12:00:18.164Z,1760
2019-03-17T12:00:59.397Z,1696
2019-03-17T12:01:41.664Z,1628
2019-03-17T12:02:26.676Z,1608
2019-03-17T12:03:02.736Z,1692
2019-03-17T12:03:44.183Z,1672
2019-03-17T12:04:24.746Z,1584
2019-03-17T12:05:07.167Z,1472
2019-03-17T12:05:52.652Z,1640
2019-03-17T12:06:33.100Z,1644
2019-03-17T12:07:13.569Z,1788
2019-03-17T12:07:57.762Z,1964
2019-03-17T12:08:39.020Z,1748
2019-03-17T12:09:28.771Z,1660
2019-03-17T12:10:01.657Z,1628
2019-03-17T12:10:44.606Z,1896
2019-03-17T12:11:25.163Z,1748
2019-03-17T12:12:05.452Z,1684
2019-03-17T12:12:45.899Z,1820
2019-03-17T12:13:30.239Z,1796
2019-03-17T12:14:10.683Z,1832
2019-03-17T12:14:51.200Z,1956
2019-03-17T12:15:31.769Z,2072
2019-03-17T12:16:15.726Z,2292
2019-03-17T12:16:56.196Z,2200
2019-03-17T12:17:36.523Z,2184
2019-03-17T12:18:17.923Z,2128
2019-03-17T12:18:59.303Z,2076
2019-03-17T12:19:39.772Z,1688
2019-03-17T12:20:23.739Z,1772
2019-03-17T12:21:04.230Z,1996
2019-03-17T12:21:47.592Z,2096
2019-03-17T12:22:27.991Z,2004
2019-03-17T12:23:08.329Z,1916
2019-03-17T12:23:52.156Z,1484
2019-03-17T12:24:35.447Z,1348
2019-03-17T12:25:16.201Z,1392
2019-03-17T12:25:59.613Z,1796
2019-03-17T12:26:40.444Z,1764
2019-03-17T12:27:24.695Z,1676
2019-03-17T12:28:05.193Z,2364
2019-03-17T12:28:52.224Z,2368
2019-03-17T12:29:32.702Z,2308
2019-03-17T12:30:13.958Z,1952
2019-03-17T12:30:56.281Z,2060
2019-03-17T12:31:39.662Z,2016
2019-03-17T12:32:20.118Z,2028
2019-03-17T12:33:01.509Z,1928
2019-03-17T12:33:44.706Z,2236
2019-03-17T12:34:28.281Z,2064
2019-03-17T12:35:07.249Z,1896
2019-03-17T12:35:47.712Z,1820
2019-03-17T12:36:28.083Z,1764
2019-03-17T12:37:10.486Z,1724
2019-03-17T12:37:51.942Z,1864
2019-03-17T12:38:34.185Z,1792
2019-03-17T12:39:18.329Z,1800
2019-03-17T12:40:02.578Z,1620
2019-03-17T12:40:45.397Z,1452
2019-03-17T12:41:28.572Z,1964
2019-03-17T12:42:09.140Z,1580
2019-03-17T12:42:49.555Z,1836
2019-03-17T12:43:31.872Z,2556
2019-03-17T12:44:15.314Z,2144
2019-03-17T12:44:57.679Z,2424
2019-03-17T12:45:41.894Z,2316
2019-03-17T12:46:24.016Z,2436
2019-03-17T12:47:07.286Z,2404
2019-03-17T12:47:47.570Z,2328
2019-03-17T12:48:27.946Z,2424
2019-03-17T12:49:09.384Z,2548
2019-03-17T12:49:51.709Z,2456
2019-03-17T12:50:33.723Z,2336
2019-03-17T12:51:15.116Z,2164
2019-03-17T12:51:57.716Z,2152
2019-03-17T12:52:39.697Z,2100
2019-03-17T12:53:21.774Z,2076
2019-03-17T12:54:03.274Z,2044
2019-03-17T12:54:43.431Z,1960
2019-03-17T12:55:23.852Z,1924
2019-03-17T12:56:04.248Z,2060
2019-03-17T12:56:46.440Z,2068
2019-03-17T12:57:28.845Z,2036
2019-03-17T12:58:09.254Z,2080
2019-03-17T12:58:49.647Z,1940
2019-03-17T12:59:30.089Z,2096
2019-03-17T13:00:13.336Z,2284
2019-03-17T13:01:00.304Z,2340
2019-03-17T13:01:40.886Z,2212
2019-03-17T13:02:26.330Z,2076
2019-03-17T13:03:08.386Z,1976
2019-03-17T13:03:50.771Z,1916
2019-03-17T13:04:31.330Z,1924
2019-03-17T13:05:13.329Z,1848
2019-03-17T13:05:53.939Z,1612
2019-03-17T13:06:36.358Z,1916
2019-03-17T13:07:17.690Z,1796
2019-03-17T13:07:59.200Z,1728
2019-03-17T13:08:40.221Z,1456
2019-03-17T13:09:21.062Z,1652
2019-03-17T13:10:01.359Z,1592
2019-03-17T13:10:41.782Z,1488
2019-03-17T13:11:23.213Z,1484
2019-03-17T13:12:04.473Z,1472
2019-03-17T13:12:44.817Z,1600
2019-03-17T13:13:26.179Z,1668
2019-03-17T13:14:07.045Z,1780
2019-03-17T13:14:46.990Z,1736
2019-03-17T13:15:28.150Z,1608
2019-03-17T13:16:10.533Z,1744
2019-03-17T13:16:52.683Z,1680
2019-03-17T13:17:32.717Z,1692
2019-03-17T13:18:13.279Z,1768
2019-03-17T13:18:53.800Z,1932
2019-03-17T13:19:34.342Z,1808
2019-03-17T13:20:17.294Z,1824
2019-03-17T13:20:58.202Z,1368
2019-03-17T13:21:40.381Z,1332
2019-03-17T13:22:32.626Z,1332
2019-03-17T13:23:13.335Z,1304
2019-03-17T13:23:53.756Z,1280